createdAt,value
2023-05-09T00:00:54.293Z,15.91
2023-05-09T00:03:21.342Z,15.89
2023-05-09T00:05:49.056Z,15.84
2023-05-09T00:08:16.177Z,15.79
2023-05-09T00:10:43.586Z,15.69
2023-05-09T00:13:10.736Z,15.69
2023-05-09T00:15:37.986Z,15.68
2023-05-09T00:18:05.173Z,15.70
2023-05-09T00:20:34.215Z,15.67
2023-05-09T00:23:01.202Z,15.63
2023-05-09T00:25:28.531Z,15.64
2023-05-09T00:27:55.536Z,15.55
2023-05-09T00:30:22.524Z,15.54
2023-05-09T00:32:49.713Z,15.57
2023-05-09T00:35:17.071Z,15.62
2023-05-09T00:37:44.163Z,15.56
2023-05-09T00:40:11.738Z,15.57
2023-05-09T00:42:38.792Z,15.59
2023-05-09T00:45:07.225Z,15.64
2023-05-09T00:47:34.985Z,15.60
2023-05-09T00:50:02.637Z,15.46
2023-05-09T00:52:30.366Z,15.49
2023-05-09T00:54:57.221Z,15.45
2023-05-09T00:57:42.481Z,15.38
2023-05-09T01:00:29.541Z,15.39
2023-05-09T01:03:16.679Z,15.32
2023-05-09T01:05:55.201Z,15.32
2023-05-09T01:08:37.781Z,15.35
2023-05-09T01:11:23.307Z,15.35
2023-05-09T01:14:13.868Z,15.26
2023-05-09T01:17:14.731Z,15.21
2023-05-09T01:19:57.243Z,15.17
2023-05-09T01:22:30.434Z,15.15
2023-05-09T01:24:57.408Z,15.13
2023-05-09T01:27:33.347Z,15.08
2023-05-09T01:30:04.804Z,15.01
2023-05-09T01:32:35.691Z,15.01
2023-05-09T01:35:05.362Z,15.03
2023-05-09T01:37:35.803Z,15.04
2023-05-09T01:40:30.743Z,15.13
2023-05-09T01:43:05.684Z,15.01
2023-05-09T01:45:34.382Z,14.99
2023-05-09T01:48:02.607Z,15.00
2023-05-09T01:50:30.902Z,14.96
2023-05-09T01:53:00.434Z,14.96
2023-05-09T01:55:29.423Z,14.98
2023-05-09T01:57:59.080Z,15.00
2023-05-09T02:00:27.314Z,14.92
2023-05-09T02:02:56.336Z,14.81
2023-05-09T02:05:28.426Z,14.89
2023-05-09T02:07:59.776Z,14.83
2023-05-09T02:10:30.905Z,14.73
2023-05-09T02:12:58.157Z,14.71
2023-05-09T02:15:26.365Z,14.79
2023-05-09T02:17:53.447Z,14.81
2023-05-09T02:20:20.535Z,14.81
2023-05-09T02:22:48.156Z,14.74
2023-05-09T02:25:15.829Z,14.71
2023-05-09T02:27:47.145Z,14.76
2023-05-09T02:30:23.582Z,14.72
2023-05-09T02:32:53.722Z,14.55
2023-05-09T02:35:23.116Z,14.58
2023-05-09T02:37:50.144Z,14.55
2023-05-09T02:40:18.470Z,14.59
2023-05-09T02:42:45.548Z,14.57
2023-05-09T02:45:12.583Z,14.52
2023-05-09T02:47:39.871Z,14.48
2023-05-09T02:50:07.420Z,14.45
2023-05-09T02:52:34.536Z,14.46
2023-05-09T02:55:03.605Z,14.43
2023-05-09T02:57:31.162Z,14.45
2023-05-09T02:59:58.153Z,14.48
2023-05-09T03:02:25.183Z,14.42
2023-05-09T03:04:52.437Z,14.42
2023-05-09T03:07:19.414Z,14.41
2023-05-09T03:09:46.365Z,14.38
2023-05-09T03:12:13.310Z,14.35
2023-05-09T03:14:40.391Z,14.33
2023-05-09T03:17:07.426Z,14.24
2023-05-09T03:19:34.415Z,14.26
2023-05-09T03:22:01.486Z,14.22
2023-05-09T03:24:28.479Z,14.22
2023-05-09T03:26:55.552Z,14.23
2023-05-09T03:29:22.545Z,14.13
2023-05-09T03:31:49.649Z,13.98
2023-05-09T03:34:16.693Z,13.97
2023-05-09T03:36:44.467Z,13.95
2023-05-09T03:39:11.782Z,14.06
2023-05-09T03:41:38.786Z,14.10
2023-05-09T03:44:06.049Z,13.95
2023-05-09T03:46:33.049Z,13.89
2023-05-09T03:49:00.027Z,13.83
2023-05-09T03:51:27.117Z,13.78
2023-05-09T03:53:54.047Z,13.90
2023-05-09T03:56:21.109Z,14.05
2023-05-09T03:58:48.456Z,14.08
2023-05-09T04:01:16.025Z,14.00
2023-05-09T04:03:43.291Z,14.00
2023-05-09T04:06:10.371Z,14.00
2023-05-09T04:08:37.481Z,14.08
2023-05-09T04:11:04.469Z,14.18
2023-05-09T04:13:33.136Z,14.08
2023-05-09T04:16:00.172Z,14.09
2023-05-09T04:18:27.254Z,14.12
2023-05-09T04:20:54.351Z,14.15
2023-05-09T04:23:21.330Z,14.10
2023-05-09T04:25:51.477Z,14.04
2023-05-09T04:28:18.435Z,14.09
2023-05-09T04:30:45.951Z,14.04
2023-05-09T04:33:13.278Z,14.01
2023-05-09T04:35:41.384Z,14.10
2023-05-09T04:38:08.546Z,14.21
2023-05-09T04:40:35.789Z,14.25
2023-05-09T04:43:03.426Z,14.22
2023-05-09T04:45:30.481Z,14.25
2023-05-09T04:47:57.552Z,14.23
2023-05-09T04:50:24.858Z,14.20
2023-05-09T04:52:51.880Z,14.15
2023-05-09T04:55:18.821Z,14.24
2023-05-09T04:57:45.797Z,14.30
2023-05-09T05:00:13.355Z,14.31
2023-05-09T05:02:40.345Z,14.37
2023-05-09T05:05:12.021Z,14.43
2023-05-09T05:07:39.783Z,14.47
2023-05-09T05:10:07.233Z,14.33
2023-05-09T05:12:34.386Z,14.35
2023-05-09T05:15:01.343Z,14.44
2023-05-09T05:17:29.747Z,14.48
2023-05-09T05:19:56.838Z,14.50
2023-05-09T05:22:24.446Z,14.55
2023-05-09T05:24:51.438Z,14.61
2023-05-09T05:27:18.527Z,14.54
2023-05-09T05:29:45.524Z,14.57
2023-05-09T05:32:12.702Z,14.63
2023-05-09T05:34:39.892Z,14.65
2023-05-09T05:37:06.845Z,14.69
2023-05-09T05:39:33.950Z,14.71
2023-05-09T05:42:00.894Z,14.73
2023-05-09T05:44:27.839Z,14.78
2023-05-09T05:46:54.859Z,14.77
2023-05-09T05:49:21.996Z,14.73
2023-05-09T05:51:48.998Z,14.76
2023-05-09T05:54:15.928Z,14.75
2023-05-09T05:56:42.948Z,14.84
2023-05-09T05:59:11.347Z,14.83
2023-05-09T06:01:40.170Z,14.83
2023-05-09T06:04:07.321Z,14.79
2023-05-09T06:06:34.734Z,14.92
2023-05-09T06:09:01.673Z,14.82
2023-05-09T06:11:29.130Z,14.87
2023-05-09T06:13:56.214Z,14.84
2023-05-09T06:16:23.386Z,14.87
2023-05-09T06:18:50.946Z,14.97
2023-05-09T06:21:18.819Z,15.02
2023-05-09T06:26:15.954Z,15.08
2023-05-09T06:28:42.931Z,15.11
2023-05-09T06:31:10.047Z,15.17
2023-05-09T06:33:37.144Z,15.18
2023-05-09T06:36:04.397Z,15.21
2023-05-09T06:38:31.434Z,15.21
2023-05-09T06:40:58.428Z,15.17
2023-05-09T06:43:25.356Z,15.18
2023-05-09T06:45:52.533Z,15.24
2023-05-09T06:48:19.551Z,15.30
2023-05-09T06:50:46.683Z,15.39
2023-05-09T06:53:13.822Z,15.39
2023-05-09T06:55:41.083Z,15.44
2023-05-09T06:58:08.144Z,15.52
2023-05-09T07:00:35.807Z,15.57
2023-05-09T07:03:02.940Z,15.59
2023-05-09T07:05:30.114Z,15.70
2023-05-09T07:07:57.201Z,15.69
2023-05-09T07:10:24.516Z,15.78
2023-05-09T07:12:51.774Z,15.89
2023-05-09T07:15:28.644Z,15.99
2023-05-09T07:17:59.783Z,16.04
2023-05-09T07:20:26.839Z,16.08
2023-05-09T07:22:53.837Z,16.14
2023-05-09T07:25:20.964Z,16.21
2023-05-09T07:27:47.963Z,16.32
2023-05-09T07:30:15.293Z,16.42
2023-05-09T07:32:42.444Z,16.45
2023-05-09T07:35:09.430Z,16.52
2023-05-09T07:37:36.892Z,16.56
2023-05-09T07:40:06.125Z,16.63
2023-05-09T07:42:33.354Z,16.71
2023-05-09T07:45:00.547Z,16.79
2023-05-09T07:47:27.673Z,16.86
2023-05-09T07:49:54.677Z,16.81
2023-05-09T07:52:21.691Z,16.86
2023-05-09T07:54:48.858Z,16.94
2023-05-09T07:57:16.678Z,16.97
2023-05-09T07:59:43.672Z,16.99
2023-05-09T08:02:10.982Z,17.05
2023-05-09T08:04:38.960Z,17.09
2023-05-09T08:07:07.432Z,17.16
2023-05-09T08:09:34.783Z,17.23
2023-05-09T08:12:01.776Z,17.27
2023-05-09T08:14:29.110Z,17.27
2023-05-09T08:16:56.123Z,17.26
2023-05-09T08:19:26.380Z,17.29
2023-05-09T08:21:53.573Z,17.32
2023-05-09T08:24:20.675Z,17.34
2023-05-09T08:26:47.702Z,17.42
2023-05-09T08:29:14.929Z,17.49
2023-05-09T08:31:42.153Z,17.56
2023-05-09T08:34:09.599Z,17.63
2023-05-09T08:36:36.600Z,17.75
2023-05-09T08:39:03.714Z,17.73
2023-05-09T08:41:36.245Z,17.73
2023-05-09T08:44:04.333Z,17.71
2023-05-09T08:46:36.936Z,17.71
2023-05-09T08:49:07.425Z,17.78
2023-05-09T08:51:36.032Z,17.83
2023-05-09T08:54:03.590Z,17.85
2023-05-09T08:56:31.692Z,17.95
2023-05-09T08:58:59.196Z,17.99
2023-05-09T09:01:29.538Z,18.07
2023-05-09T09:03:56.711Z,18.12
2023-05-09T09:06:25.922Z,18.10
2023-05-09T09:08:55.171Z,18.15
2023-05-09T09:11:22.911Z,18.18
2023-05-09T09:13:52.944Z,18.22
2023-05-09T09:16:23.138Z,18.23
2023-05-09T09:18:52.423Z,18.26
2023-05-09T09:21:20.482Z,18.31
2023-05-09T09:23:49.000Z,18.35
2023-05-09T09:26:16.649Z,18.37
2023-05-09T09:28:43.895Z,18.51
2023-05-09T09:31:28.582Z,18.52
2023-05-09T09:34:03.332Z,18.51
2023-05-09T09:36:32.604Z,18.58
2023-05-09T09:39:01.247Z,18.70
2023-05-09T09:41:35.583Z,18.82
2023-05-09T09:44:14.241Z,18.93
2023-05-09T09:46:56.648Z,18.96
2023-05-09T09:49:25.657Z,19.03
2023-05-09T09:51:59.373Z,19.13
2023-05-09T09:54:28.104Z,19.08
2023-05-09T09:56:56.774Z,19.17
2023-05-09T09:59:26.176Z,19.36
2023-05-09T10:01:54.632Z,19.47
2023-05-09T10:04:22.027Z,19.55
2023-05-09T10:06:57.482Z,19.65
2023-05-09T10:09:25.566Z,19.64
2023-05-09T10:11:53.630Z,19.68
2023-05-09T10:14:24.181Z,19.70
2023-05-09T10:16:58.723Z,19.70
2023-05-09T10:19:27.531Z,19.77
2023-05-09T10:21:57.027Z,19.95
2023-05-09T10:24:35.625Z,20.09
2023-05-09T10:27:07.080Z,20.11
2023-05-09T10:29:41.613Z,20.19
2023-05-09T10:32:31.551Z,20.25
2023-05-09T10:35:04.840Z,20.17
2023-05-09T10:37:33.542Z,20.21
2023-05-09T10:40:05.251Z,20.41
2023-05-09T10:42:32.720Z,20.47
2023-05-09T10:44:59.947Z,20.50
2023-05-09T10:47:28.233Z,20.46
2023-05-09T10:49:56.108Z,20.53
2023-05-09T10:52:23.817Z,20.57
2023-05-09T10:55:01.865Z,20.73
2023-05-09T10:57:30.473Z,20.70
2023-05-09T10:59:58.430Z,20.63
2023-05-09T11:02:29.588Z,20.67
2023-05-09T11:05:19.430Z,20.85
2023-05-09T11:07:46.542Z,20.88
2023-05-09T11:10:18.554Z,20.97
2023-05-09T11:12:59.659Z,21.12
2023-05-09T11:15:30.088Z,21.03
2023-05-09T11:20:35.913Z,21.04
2023-05-09T11:23:07.043Z,21.00
2023-05-09T11:25:34.079Z,21.10
2023-05-09T11:28:02.124Z,21.13
2023-05-09T11:30:40.029Z,20.98
2023-05-09T11:33:07.388Z,20.81
2023-05-09T11:35:38.735Z,20.83
2023-05-09T11:38:06.845Z,20.82
2023-05-09T11:40:35.012Z,20.89
2023-05-09T11:43:02.235Z,20.98
2023-05-09T11:45:31.243Z,21.16
2023-05-09T11:47:59.129Z,21.37
2023-05-09T11:50:26.462Z,21.35
2023-05-09T11:52:54.431Z,21.23
2023-05-09T11:55:23.115Z,21.28
2023-05-09T11:57:52.697Z,21.31
2023-05-09T12:00:25.018Z,21.22
2023-05-09T12:02:53.565Z,21.21
2023-05-09T12:05:23.057Z,21.15
2023-05-09T12:07:50.359Z,21.13
2023-05-09T12:10:20.280Z,21.21
2023-05-09T12:12:49.043Z,21.46
2023-05-09T12:15:17.684Z,21.59
2023-05-09T12:17:48.158Z,21.59
2023-05-09T12:20:16.649Z,21.57
2023-05-09T12:22:44.143Z,21.60
2023-05-09T12:25:12.408Z,21.70
2023-05-09T12:27:41.217Z,21.80
2023-05-09T12:30:10.994Z,21.77
2023-05-09T12:32:40.590Z,21.70
2023-05-09T12:35:09.759Z,21.64
2023-05-09T12:37:36.973Z,21.54
2023-05-09T12:40:13.066Z,21.52
2023-05-09T12:42:44.660Z,21.39
2023-05-09T12:45:12.240Z,21.27
2023-05-09T12:47:39.552Z,21.37
2023-05-09T12:50:08.373Z,21.50
2023-05-09T12:52:41.732Z,21.53
2023-05-09T12:55:19.153Z,21.44
2023-05-09T12:57:58.306Z,21.56
2023-05-09T13:00:25.648Z,21.55
2023-05-09T13:02:53.123Z,21.63
2023-05-09T13:05:22.315Z,21.77
2023-05-09T13:07:52.520Z,21.76
2023-05-09T13:10:24.109Z,21.76
2023-05-09T13:12:51.889Z,21.88
2023-05-09T13:15:21.008Z,21.70
2023-05-09T13:17:49.205Z,21.57
2023-05-09T13:20:17.341Z,21.53
2023-05-09T13:22:45.558Z,21.57
2023-05-09T13:25:13.150Z,21.78
2023-05-09T13:27:40.134Z,21.92
2023-05-09T13:30:07.943Z,21.99
2023-05-09T13:32:36.869Z,21.93
2023-05-09T13:35:09.639Z,21.83
2023-05-09T13:37:36.656Z,21.73
2023-05-09T13:40:04.446Z,21.66
2023-05-09T13:42:34.468Z,21.60
2023-05-09T13:45:01.547Z,21.57
2023-05-09T13:47:28.804Z,21.68
2023-05-09T13:49:55.799Z,21.69
2023-05-09T13:52:23.360Z,21.74
2023-05-09T13:54:50.367Z,21.83
2023-05-09T13:57:17.289Z,21.90
2023-05-09T13:59:44.341Z,21.85
2023-05-09T14:02:11.768Z,21.89
2023-05-09T14:04:39.350Z,22.14
2023-05-09T14:07:07.138Z,22.30
2023-05-09T14:09:40.283Z,22.29
2023-05-09T14:12:07.409Z,22.31
2023-05-09T14:14:34.405Z,22.40
2023-05-09T14:17:01.659Z,22.26
2023-05-09T14:19:33.184Z,22.02
2023-05-09T14:22:00.159Z,21.77
2023-05-09T14:24:30.921Z,21.74
2023-05-09T14:26:58.020Z,21.77
2023-05-09T14:29:25.031Z,21.70
2023-05-09T14:31:52.166Z,21.59
2023-05-09T14:34:19.472Z,21.52
2023-05-09T14:36:46.513Z,21.50
2023-05-09T14:39:13.511Z,21.55
2023-05-09T14:41:40.560Z,21.58
2023-05-09T14:44:07.580Z,21.65
2023-05-09T14:46:34.657Z,21.63
2023-05-09T14:49:04.385Z,21.60
2023-05-09T14:51:31.975Z,21.63
2023-05-09T14:53:59.505Z,21.72
2023-05-09T14:56:26.993Z,21.73
2023-05-09T14:58:53.988Z,21.79
2023-05-09T15:01:21.551Z,21.80
2023-05-09T15:03:48.516Z,21.83
2023-05-09T15:06:15.750Z,21.99
2023-05-09T15:08:42.868Z,22.37
2023-05-09T15:11:09.852Z,22.49
2023-05-09T15:13:37.001Z,22.31
2023-05-09T15:16:05.210Z,22.39
2023-05-09T15:18:33.718Z,22.34
2023-05-09T15:21:01.078Z,22.30
2023-05-09T15:23:28.123Z,22.14
2023-05-09T15:25:55.297Z,21.93
2023-05-09T15:28:22.528Z,21.85
2023-05-09T15:30:49.641Z,21.92
2023-05-09T15:33:16.594Z,21.90
2023-05-09T15:35:44.331Z,21.82
2023-05-09T15:38:12.465Z,21.72
2023-05-09T15:40:41.250Z,21.56
2023-05-09T15:43:08.585Z,21.59
2023-05-09T15:45:37.531Z,21.63
2023-05-09T15:48:04.945Z,21.63
2023-05-09T15:50:31.952Z,21.61
2023-05-09T15:52:58.926Z,21.51
2023-05-09T15:55:28.034Z,21.42
2023-05-09T15:57:55.842Z,21.36
2023-05-09T16:00:23.045Z,21.35
2023-05-09T16:02:50.497Z,21.35
2023-05-09T16:05:17.899Z,21.38
2023-05-09T16:07:47.037Z,21.46
2023-05-09T16:10:14.337Z,21.50
2023-05-09T16:12:41.516Z,21.48
2023-05-09T16:15:08.969Z,21.43
2023-05-09T16:17:35.969Z,21.41
2023-05-09T16:20:03.038Z,21.44
2023-05-09T16:22:30.215Z,21.42
2023-05-09T16:24:57.219Z,21.40
2023-05-09T16:27:24.225Z,21.35
2023-05-09T16:29:51.237Z,21.36
2023-05-09T16:32:18.318Z,21.33
2023-05-09T16:34:45.270Z,21.33
2023-05-09T16:37:12.585Z,21.34
2023-05-09T16:39:39.587Z,21.31
2023-05-09T16:42:06.685Z,21.26
2023-05-09T16:44:33.704Z,21.25
2023-05-09T16:47:01.286Z,21.28
2023-05-09T16:49:28.620Z,21.32
2023-05-09T16:51:55.652Z,21.32
2023-05-09T16:54:23.428Z,21.32
2023-05-09T16:56:50.431Z,21.31
2023-05-09T16:59:17.693Z,21.24
2023-05-09T17:01:44.654Z,21.17
2023-05-09T17:04:11.798Z,21.07
2023-05-09T17:06:38.862Z,20.98
2023-05-09T17:09:05.963Z,20.89
2023-05-09T17:11:33.621Z,20.84
2023-05-09T17:14:02.611Z,20.82
2023-05-09T17:16:29.805Z,20.76
2023-05-09T17:18:56.830Z,20.75
2023-05-09T17:21:23.840Z,20.71
2023-05-09T17:23:53.981Z,20.70
2023-05-09T17:26:21.577Z,20.69
2023-05-09T17:28:49.095Z,20.68
2023-05-09T17:31:16.165Z,20.67
2023-05-09T17:33:43.857Z,20.64
2023-05-09T17:36:10.894Z,20.60
2023-05-09T17:38:38.079Z,20.58
2023-05-09T17:41:05.105Z,20.53
2023-05-09T17:43:32.143Z,20.50
2023-05-09T17:45:59.369Z,20.47
2023-05-09T17:48:26.391Z,20.42
2023-05-09T17:50:53.573Z,20.37
2023-05-09T17:53:20.664Z,20.35
2023-05-09T17:55:47.978Z,20.34
2023-05-09T17:58:15.309Z,20.28
2023-05-09T18:00:42.444Z,20.14
2023-05-09T18:03:09.486Z,20.06
2023-05-09T18:05:36.524Z,19.95
2023-05-09T18:08:03.777Z,19.93
2023-05-09T18:10:30.780Z,19.87
2023-05-09T18:12:57.818Z,19.87
2023-05-09T18:15:25.706Z,19.88
2023-05-09T18:17:53.970Z,19.95
2023-05-09T18:20:21.275Z,19.92
2023-05-09T18:22:48.283Z,19.95
2023-05-09T18:25:15.308Z,19.93
2023-05-09T18:27:42.242Z,19.93
2023-05-09T18:30:09.617Z,19.94
2023-05-09T18:32:36.603Z,20.01
2023-05-09T18:35:04.268Z,19.96
2023-05-09T18:37:31.307Z,19.96
2023-05-09T18:39:58.300Z,19.94
2023-05-09T18:42:25.379Z,19.92
2023-05-09T18:44:52.559Z,19.92
2023-05-09T18:47:19.602Z,19.92
2023-05-09T18:49:47.703Z,19.91
2023-05-09T18:52:15.327Z,19.90
2023-05-09T18:54:42.391Z,19.67
2023-05-09T18:57:10.124Z,19.39
2023-05-09T18:59:37.726Z,19.17
2023-05-09T19:02:04.805Z,19.05
2023-05-09T19:04:31.888Z,18.98
2023-05-09T19:06:59.688Z,18.86
2023-05-09T19:09:26.946Z,18.82
2023-05-09T19:11:54.218Z,18.77
2023-05-09T19:14:21.162Z,18.69
2023-05-09T19:16:48.370Z,18.64
2023-05-09T19:19:15.924Z,18.58
2023-05-09T19:21:43.190Z,18.50
2023-05-09T19:24:10.298Z,18.37
2023-05-09T19:26:37.266Z,18.42
2023-05-09T19:29:08.230Z,18.42
2023-05-09T19:31:37.666Z,18.44
2023-05-09T19:34:04.659Z,18.37
2023-05-09T19:36:31.729Z,18.27
2023-05-09T19:38:58.828Z,18.26
2023-05-09T19:41:26.165Z,18.28
2023-05-09T19:43:53.547Z,18.30
2023-05-09T19:46:22.445Z,18.30
2023-05-09T19:48:49.536Z,18.24
2023-05-09T19:51:16.594Z,18.19
2023-05-09T19:53:43.661Z,18.20
2023-05-09T19:56:10.830Z,18.23
2023-05-09T19:58:37.890Z,18.22
2023-05-09T20:01:06.863Z,18.14
2023-05-09T20:03:37.107Z,18.15
2023-05-09T20:06:04.467Z,18.14
2023-05-09T20:08:31.428Z,18.16
2023-05-09T20:11:00.255Z,18.14
2023-05-09T20:13:27.861Z,18.09
2023-05-09T20:15:55.397Z,17.99
2023-05-09T20:18:22.383Z,18.02
2023-05-09T20:20:49.391Z,18.04
2023-05-09T20:23:16.394Z,18.03
2023-05-09T20:25:43.368Z,18.13
2023-05-09T20:28:12.032Z,18.11
2023-05-09T20:30:39.044Z,18.03
2023-05-09T20:33:06.090Z,17.96
2023-05-09T20:35:33.198Z,17.91
2023-05-09T20:38:00.166Z,17.92
2023-05-09T20:40:27.133Z,17.94
2023-05-09T20:42:54.220Z,17.88
2023-05-09T20:45:21.344Z,17.83
2023-05-09T20:47:48.402Z,17.75
2023-05-09T20:50:15.692Z,17.81
2023-05-09T20:52:42.869Z,17.72
2023-05-09T20:55:10.003Z,17.85
2023-05-09T20:57:36.979Z,17.92
2023-05-09T21:00:04.282Z,17.89
2023-05-09T21:02:31.391Z,17.83
2023-05-09T21:04:58.420Z,17.82
2023-05-09T21:07:25.433Z,17.72
2023-05-09T21:09:54.187Z,17.83
2023-05-09T21:12:21.269Z,17.82
2023-05-09T21:14:49.165Z,17.82
2023-05-09T21:17:16.392Z,17.61
2023-05-09T21:19:43.522Z,17.56
2023-05-09T21:22:10.489Z,17.60
2023-05-09T21:24:37.535Z,17.64
2023-05-09T21:27:04.995Z,17.68
2023-05-09T21:29:31.961Z,17.72
2023-05-09T21:31:58.915Z,17.50
2023-05-09T21:34:25.981Z,17.31
2023-05-09T21:36:52.990Z,17.39
2023-05-09T21:39:19.916Z,17.51
2023-05-09T21:41:46.877Z,17.54
2023-05-09T21:44:13.946Z,17.48
2023-05-09T21:46:41.425Z,17.40
2023-05-09T21:49:08.427Z,17.52
2023-05-09T21:51:35.387Z,17.53
2023-05-09T21:54:02.451Z,17.50
2023-05-09T21:56:29.778Z,17.23
2023-05-09T21:58:56.798Z,17.11
2023-05-09T22:01:23.874Z,17.02
2023-05-09T22:03:51.842Z,16.95
2023-05-09T22:06:18.891Z,17.00
2023-05-09T22:08:45.911Z,17.18
2023-05-09T22:11:14.788Z,17.34
2023-05-09T22:13:42.649Z,17.16
2023-05-09T22:16:09.893Z,17.04
2023-05-09T22:18:37.321Z,17.21
2023-05-09T22:21:04.552Z,17.08
2023-05-09T22:23:31.599Z,16.99
2023-05-09T22:25:58.552Z,16.99
2023-05-09T22:28:25.609Z,16.95
2023-05-09T22:30:52.622Z,17.04
2023-05-09T22:33:20.380Z,17.24
2023-05-09T22:35:47.469Z,17.11
2023-05-09T22:38:14.597Z,17.22
2023-05-09T22:40:41.631Z,17.29
2023-05-09T22:43:10.639Z,17.15
2023-05-09T22:45:37.924Z,16.97
2023-05-09T22:48:05.360Z,16.93
2023-05-09T22:50:32.493Z,16.92
2023-05-09T22:53:00.489Z,17.05
2023-05-09T22:55:27.752Z,17.11
2023-05-09T22:57:54.715Z,17.15
2023-05-09T23:00:21.999Z,17.05
2023-05-09T23:02:49.164Z,17.15
2023-05-09T23:05:16.266Z,17.22
2023-05-09T23:07:43.263Z,17.24
2023-05-09T23:10:10.526Z,17.18
2023-05-09T23:12:38.291Z,17.22
2023-05-09T23:15:07.527Z,17.21
2023-05-09T23:17:34.677Z,17.20
2023-05-09T23:20:01.788Z,17.22
2023-05-09T23:22:29.075Z,17.23
2023-05-09T23:24:56.274Z,17.21
2023-05-09T23:27:23.561Z,17.21
2023-05-09T23:29:50.618Z,17.15
2023-05-09T23:32:17.575Z,17.10
2023-05-09T23:34:44.596Z,17.10
2023-05-09T23:37:12.110Z,17.08
2023-05-09T23:39:39.061Z,17.06
2023-05-09T23:42:06.178Z,16.87
2023-05-09T23:44:33.332Z,16.70
2023-05-09T23:47:02.097Z,16.73
2023-05-09T23:49:29.220Z,16.87
2023-05-09T23:51:56.346Z,16.90
2023-05-09T23:54:24.552Z,16.88
2023-05-09T23:56:51.593Z,16.67
2023-05-09T23:59:18.570Z,16.78
